createdAt,value
2022-11-17T00:01:08.145Z,2.30
2022-11-17T00:03:36.083Z,2.10
2022-11-17T00:06:07.059Z,2.47
2022-11-17T00:08:33.942Z,2.23
2022-11-17T00:11:01.861Z,2.50
2022-11-17T00:13:53.286Z,2.23
2022-11-17T00:16:21.701Z,2.30
2022-11-17T00:19:07.678Z,2.40
2022-11-17T00:21:34.999Z,2.40
2022-11-17T00:24:02.411Z,2.23
2022-11-17T00:26:34.602Z,2.50
2022-11-17T00:29:07.317Z,2.37
2022-11-17T00:31:53.287Z,2.40
2022-11-17T00:34:45.420Z,2.80
2022-11-17T00:37:13.403Z,2.53
2022-11-17T00:39:40.230Z,2.50
2022-11-17T00:42:07.095Z,2.40
2022-11-17T00:44:34.016Z,2.47
2022-11-17T00:47:00.953Z,2.77
2022-11-17T00:49:28.052Z,2.57
2022-11-17T00:51:56.020Z,2.30
2022-11-17T00:54:23.422Z,2.30
2022-11-17T00:56:50.348Z,2.70
2022-11-17T00:59:17.661Z,2.70
2022-11-17T01:01:44.889Z,2.40
2022-11-17T01:04:14.724Z,2.87
2022-11-17T01:06:43.933Z,2.80
2022-11-17T01:09:24.376Z,2.80
2022-11-17T01:11:52.926Z,2.90
2022-11-17T01:14:26.989Z,2.90
2022-11-17T01:16:54.776Z,2.60
2022-11-17T01:19:22.913Z,2.77
2022-11-17T01:21:50.051Z,2.60
2022-11-17T01:24:17.391Z,2.80
2022-11-17T01:26:46.491Z,3.03
2022-11-17T01:29:17.184Z,2.70
2022-11-17T01:31:45.600Z,2.77
2022-11-17T01:34:13.093Z,2.90
2022-11-17T01:37:01.060Z,3.00
2022-11-17T01:39:29.832Z,3.20
2022-11-17T01:41:57.796Z,3.00
2022-11-17T01:44:48.194Z,2.63
2022-11-17T01:47:23.976Z,3.03
2022-11-17T01:49:56.232Z,3.80
2022-11-17T01:52:24.658Z,3.30
2022-11-17T01:54:54.193Z,3.47
2022-11-17T01:57:30.724Z,3.07
2022-11-17T02:00:07.677Z,3.20
2022-11-17T02:02:35.787Z,2.97
2022-11-17T02:05:26.401Z,3.53
2022-11-17T02:07:55.402Z,3.33
2022-11-17T02:10:22.445Z,3.50
2022-11-17T02:12:50.247Z,3.80
2022-11-17T02:15:17.247Z,3.90
2022-11-17T02:17:44.569Z,4.20
2022-11-17T02:20:30.866Z,4.77
2022-11-17T02:23:12.356Z,3.80
2022-11-17T02:25:47.175Z,5.43
2022-11-17T02:28:30.078Z,5.23
2022-11-17T02:31:14.755Z,6.20
2022-11-17T02:33:54.561Z,5.03
2022-11-17T02:36:41.370Z,5.83
2022-11-17T02:39:47.367Z,5.90
2022-11-17T02:43:03.460Z,6.57
2022-11-17T02:45:42.082Z,6.47
2022-11-17T02:48:16.441Z,6.07
2022-11-17T02:50:46.753Z,5.87
2022-11-17T02:53:17.988Z,7.20
2022-11-17T02:55:53.072Z,6.70
2022-11-17T03:01:28.057Z,5.97
2022-11-17T03:04:27.193Z,7.10
2022-11-17T03:07:32.162Z,6.97
2022-11-17T03:10:22.364Z,7.13
2022-11-17T03:13:00.648Z,7.87
2022-11-17T03:15:48.770Z,8.17
2022-11-17T03:18:34.191Z,7.63
2022-11-17T03:21:22.639Z,7.70
2022-11-17T03:23:52.422Z,6.83
2022-11-17T03:26:34.740Z,7.60
2022-11-17T03:29:03.872Z,7.70
2022-11-17T03:31:33.861Z,8.03
2022-11-17T03:34:06.504Z,8.27
2022-11-17T03:36:39.709Z,7.93
2022-11-17T03:39:27.104Z,8.07
2022-11-17T03:42:00.117Z,9.00
2022-11-17T03:44:29.519Z,8.73
2022-11-17T03:47:02.498Z,8.07
2022-11-17T03:49:51.888Z,8.70
2022-11-17T03:52:20.008Z,9.00
2022-11-17T03:54:47.427Z,9.23
2022-11-17T04:00:19.319Z,8.53
2022-11-17T04:02:48.824Z,9.90
2022-11-17T04:05:17.902Z,8.83
2022-11-17T04:07:46.889Z,9.90
2022-11-17T04:10:19.294Z,8.50
2022-11-17T04:13:09.305Z,8.87
2022-11-17T04:15:54.742Z,9.33
2022-11-17T04:18:22.648Z,7.83
2022-11-17T04:20:53.946Z,10.10
2022-11-17T04:23:21.222Z,9.73
2022-11-17T04:26:22.143Z,8.80
2022-11-17T04:28:50.684Z,9.30
2022-11-17T04:31:20.259Z,7.80
2022-11-17T04:33:52.358Z,8.50
2022-11-17T04:36:23.937Z,9.03
2022-11-17T04:39:16.273Z,8.27
2022-11-17T04:41:57.522Z,8.27
2022-11-17T04:44:28.023Z,8.17
2022-11-17T04:46:56.285Z,7.80
2022-11-17T04:49:24.838Z,6.80
2022-11-17T04:51:53.054Z,7.60
2022-11-17T04:54:23.734Z,7.43
2022-11-17T04:56:51.699Z,7.80
2022-11-17T04:59:18.533Z,6.57
2022-11-17T05:01:48.271Z,7.23
2022-11-17T05:04:35.685Z,7.27
2022-11-17T05:07:03.150Z,7.30
2022-11-17T05:09:29.964Z,7.97
2022-11-17T05:12:17.372Z,8.13
2022-11-17T05:14:44.320Z,7.90
2022-11-17T05:17:12.037Z,7.83
2022-11-17T05:19:41.843Z,7.77
2022-11-17T05:22:38.902Z,8.50
2022-11-17T05:25:06.443Z,8.20
2022-11-17T05:27:34.846Z,7.90
2022-11-17T05:30:29.520Z,7.87
2022-11-17T05:32:58.947Z,8.30
2022-11-17T05:35:25.758Z,8.70
2022-11-17T05:37:52.673Z,8.63
2022-11-17T05:40:19.616Z,7.47
2022-11-17T05:42:47.399Z,8.67
2022-11-17T05:45:14.333Z,9.27
2022-11-17T05:47:41.319Z,8.13
2022-11-17T05:50:08.459Z,8.20
2022-11-17T05:52:35.323Z,8.50
2022-11-17T05:55:02.351Z,8.33
2022-11-17T05:57:32.739Z,7.37
2022-11-17T06:00:04.750Z,8.03
2022-11-17T06:02:40.153Z,6.80
2022-11-17T06:05:08.315Z,6.83
2022-11-17T06:07:37.267Z,7.33
2022-11-17T06:10:04.986Z,5.70
2022-11-17T06:12:32.152Z,6.27
2022-11-17T06:14:59.143Z,5.50
2022-11-17T06:17:35.194Z,6.07
2022-11-17T06:20:24.719Z,5.80
2022-11-17T06:22:53.196Z,5.87
2022-11-17T06:25:21.365Z,5.87
2022-11-17T06:27:50.905Z,5.63
2022-11-17T06:30:18.290Z,6.10
2022-11-17T06:32:45.787Z,5.57
2022-11-17T06:35:14.636Z,5.70
2022-11-17T06:37:41.572Z,5.40
2022-11-17T06:40:10.047Z,5.07
2022-11-17T06:45:48.683Z,6.23
2022-11-17T06:48:17.675Z,6.07
2022-11-17T06:50:44.531Z,6.70
2022-11-17T06:53:12.436Z,6.33
2022-11-17T06:55:39.536Z,7.80
2022-11-17T06:58:12.106Z,7.83
2022-11-17T07:00:39.183Z,8.03
2022-11-17T07:03:09.167Z,7.53
2022-11-17T07:05:39.964Z,7.67
2022-11-17T07:08:09.184Z,8.43
2022-11-17T07:10:46.542Z,7.57
2022-11-17T07:13:19.641Z,7.60
2022-11-17T07:15:46.503Z,9.10
2022-11-17T07:18:13.380Z,7.63
2022-11-17T07:20:40.309Z,6.30
2022-11-17T07:23:07.174Z,7.60
2022-11-17T07:25:34.110Z,7.40
2022-11-17T07:28:01.094Z,5.77
2022-11-17T07:30:28.083Z,7.20
2022-11-17T07:32:55.151Z,6.63
2022-11-17T07:35:22.015Z,6.63
2022-11-17T07:37:48.841Z,6.73
2022-11-17T07:40:16.026Z,6.10
2022-11-17T07:42:47.690Z,6.70
2022-11-17T07:45:14.784Z,6.20
2022-11-17T07:47:41.763Z,5.60
2022-11-17T07:50:09.266Z,7.17
2022-11-17T07:52:41.284Z,5.93
2022-11-17T07:55:08.558Z,6.80
2022-11-17T07:57:35.743Z,6.93
2022-11-17T08:00:02.913Z,6.13
2022-11-17T08:02:29.740Z,6.57
2022-11-17T08:04:57.327Z,6.20
2022-11-17T08:07:24.553Z,6.33
2022-11-17T08:09:51.511Z,5.63
2022-11-17T08:12:19.188Z,6.13
2022-11-17T08:14:46.050Z,5.87
2022-11-17T08:17:12.843Z,6.03
2022-11-17T08:19:39.641Z,6.33
2022-11-17T08:22:06.564Z,5.80
2022-11-17T08:24:33.418Z,5.47
2022-11-17T08:27:00.255Z,5.57
2022-11-17T08:29:27.069Z,5.93
2022-11-17T08:31:53.882Z,6.40
2022-11-17T08:34:20.700Z,6.43
2022-11-17T08:39:39.556Z,5.77
2022-11-17T08:42:06.558Z,5.90
2022-11-17T08:44:33.437Z,5.67
2022-11-17T08:47:00.348Z,5.87
2022-11-17T08:49:27.150Z,5.63
2022-11-17T08:51:54.051Z,5.60
2022-11-17T08:54:20.922Z,6.37
2022-11-17T08:56:48.810Z,6.10
2022-11-17T08:59:15.599Z,5.30
2022-11-17T09:01:42.401Z,6.10
2022-11-17T09:04:09.254Z,5.40
2022-11-17T09:06:36.056Z,5.47
2022-11-17T09:09:03.242Z,5.77
2022-11-17T09:11:30.452Z,6.20
2022-11-17T09:13:57.978Z,5.53
2022-11-17T09:16:25.434Z,6.03
2022-11-17T09:18:59.563Z,5.33
2022-11-17T09:21:27.332Z,5.80
2022-11-17T09:23:54.843Z,4.83
2022-11-17T09:26:22.035Z,5.70
2022-11-17T09:28:49.130Z,5.40
2022-11-17T09:31:19.377Z,5.27
2022-11-17T09:33:46.716Z,6.10
2022-11-17T09:36:16.205Z,5.63
2022-11-17T09:38:43.077Z,5.13
2022-11-17T09:41:15.888Z,5.50
2022-11-17T09:44:02.870Z,5.80
2022-11-17T09:47:08.065Z,5.27
2022-11-17T09:49:41.707Z,5.23
2022-11-17T09:52:43.784Z,5.67
2022-11-17T09:55:34.545Z,5.27
2022-11-17T09:58:15.462Z,4.47
2022-11-17T10:00:47.341Z,5.17
2022-11-17T10:03:21.234Z,5.40
2022-11-17T10:05:49.402Z,4.87
2022-11-17T10:08:20.181Z,4.83
2022-11-17T10:10:52.144Z,5.87
2022-11-17T10:13:30.805Z,5.97
2022-11-17T10:16:04.373Z,5.17
2022-11-17T10:18:38.172Z,5.13
2022-11-17T10:21:06.847Z,5.87
2022-11-17T10:23:41.276Z,5.50
2022-11-17T10:26:14.694Z,5.30
2022-11-17T10:28:42.707Z,4.93
2022-11-17T10:31:19.779Z,6.93
2022-11-17T10:33:50.619Z,5.30
2022-11-17T10:36:20.473Z,5.00
2022-11-17T10:38:50.537Z,4.90
2022-11-17T10:41:27.226Z,4.53
2022-11-17T10:44:02.663Z,4.53
2022-11-17T10:46:35.788Z,5.73
2022-11-17T10:49:24.327Z,6.50
2022-11-17T10:52:04.125Z,5.90
2022-11-17T10:54:31.019Z,6.03
2022-11-17T10:57:00.719Z,4.97
2022-11-17T10:59:49.692Z,5.67
2022-11-17T11:02:49.778Z,5.07
2022-11-17T11:05:18.841Z,5.77
2022-11-17T11:07:45.900Z,5.60
2022-11-17T11:10:21.883Z,4.87
2022-11-17T11:13:15.000Z,5.37
2022-11-17T11:15:42.106Z,4.97
2022-11-17T11:18:14.756Z,5.83
2022-11-17T11:20:41.517Z,5.80
2022-11-17T11:23:18.252Z,5.30
2022-11-17T11:25:49.302Z,6.57
2022-11-17T11:28:16.710Z,6.07
2022-11-17T11:31:08.821Z,5.60
2022-11-17T11:33:50.069Z,5.13
2022-11-17T11:36:41.093Z,5.00
2022-11-17T11:39:35.552Z,5.80
2022-11-17T11:42:42.688Z,6.63
2022-11-17T11:45:31.118Z,5.43
2022-11-17T11:48:20.243Z,5.80
2022-11-17T11:51:37.164Z,5.37
2022-11-17T11:54:13.823Z,5.33
2022-11-17T11:56:46.149Z,5.57
2022-11-17T11:59:18.921Z,6.10
2022-11-17T12:02:03.468Z,6.33
2022-11-17T12:04:48.946Z,7.03
2022-11-17T12:07:26.425Z,6.20
2022-11-17T12:09:53.122Z,6.27
2022-11-17T12:12:29.623Z,6.33
2022-11-17T12:15:19.712Z,6.17
2022-11-17T12:18:18.798Z,6.60
2022-11-17T12:20:57.973Z,7.00
2022-11-17T12:23:48.284Z,6.07
2022-11-17T12:26:30.027Z,6.47
2022-11-17T12:29:21.485Z,6.73
2022-11-17T12:31:50.385Z,7.40
2022-11-17T12:34:24.643Z,6.13
2022-11-17T12:37:26.561Z,8.20
2022-11-17T12:39:59.411Z,5.53
2022-11-17T12:42:27.919Z,5.80
2022-11-17T12:45:11.463Z,6.17
2022-11-17T12:48:04.801Z,5.53
2022-11-17T12:50:34.418Z,6.00
2022-11-17T12:53:15.097Z,6.27
2022-11-17T12:55:57.003Z,6.13
2022-11-17T12:58:48.690Z,5.37
2022-11-17T13:01:15.436Z,6.90
2022-11-17T13:04:30.422Z,5.57
2022-11-17T13:07:17.160Z,6.33
2022-11-17T13:09:44.221Z,6.60
2022-11-17T13:12:11.406Z,6.40
2022-11-17T13:14:54.281Z,6.07
2022-11-17T13:17:27.383Z,5.67
2022-11-17T13:20:13.032Z,5.13
2022-11-17T13:22:42.071Z,4.63
2022-11-17T13:25:22.880Z,5.47
2022-11-17T13:28:19.057Z,5.70
2022-11-17T13:30:46.937Z,5.80
2022-11-17T13:33:22.064Z,5.90
2022-11-17T13:35:48.961Z,6.17
2022-11-17T13:38:23.673Z,6.03
2022-11-17T13:40:52.493Z,5.63
2022-11-17T13:43:25.242Z,6.30
2022-11-17T13:45:55.013Z,5.47
2022-11-17T13:48:33.910Z,5.30
2022-11-17T13:51:35.123Z,5.83
2022-11-17T13:54:04.659Z,6.20
2022-11-17T13:56:39.323Z,5.80
2022-11-17T13:59:23.361Z,6.60
2022-11-17T14:01:51.500Z,7.50
2022-11-17T14:04:24.084Z,6.67
2022-11-17T14:07:01.029Z,6.17
2022-11-17T14:09:30.874Z,6.30
2022-11-17T14:11:58.675Z,6.27
2022-11-17T14:14:34.646Z,5.83
2022-11-17T14:17:13.609Z,6.77
2022-11-17T14:19:40.480Z,5.70
2022-11-17T14:22:12.284Z,6.50
2022-11-17T14:24:42.902Z,6.40
2022-11-17T14:27:34.690Z,6.33
2022-11-17T14:30:01.454Z,6.63
2022-11-17T14:32:28.398Z,6.70
2022-11-17T14:34:55.208Z,7.57
2022-11-17T14:37:21.987Z,7.00
2022-11-17T14:39:48.784Z,6.17
2022-11-17T14:42:15.500Z,7.03
2022-11-17T14:44:42.357Z,6.97
2022-11-17T14:47:09.124Z,6.83
2022-11-17T14:49:35.907Z,6.30
2022-11-17T14:52:02.989Z,6.73
2022-11-17T14:54:29.762Z,6.87
2022-11-17T14:56:56.526Z,6.57
2022-11-17T14:59:25.293Z,6.70
2022-11-17T15:01:52.043Z,7.27
2022-11-17T15:04:48.912Z,7.60
2022-11-17T15:07:05.975Z,7.03
2022-11-17T15:09:33.205Z,7.23
2022-11-17T15:12:00.501Z,7.90
2022-11-17T15:14:27.330Z,7.27
2022-11-17T15:16:54.063Z,7.87
2022-11-17T15:19:20.822Z,8.27
2022-11-17T15:21:47.593Z,7.63
2022-11-17T15:24:14.671Z,8.17
2022-11-17T15:26:41.709Z,6.60
2022-11-17T15:29:15.231Z,7.23
2022-11-17T15:31:42.784Z,6.97
2022-11-17T15:34:19.903Z,7.50
2022-11-17T15:36:47.508Z,7.27
2022-11-17T15:39:14.783Z,6.87
2022-11-17T15:41:41.862Z,7.80
2022-11-17T15:44:08.893Z,6.73
2022-11-17T15:46:35.897Z,8.13
2022-11-17T15:49:03.685Z,7.63
2022-11-17T15:51:30.423Z,8.00
2022-11-17T15:53:59.250Z,7.33
2022-11-17T15:56:29.612Z,7.67
2022-11-17T15:59:03.277Z,8.23
2022-11-17T16:01:35.346Z,7.60
2022-11-17T16:04:04.896Z,8.10
2022-11-17T16:06:33.625Z,7.97
2022-11-17T16:09:00.445Z,6.50
2022-11-17T16:11:28.090Z,8.20
2022-11-17T16:13:56.127Z,7.10
2022-11-17T16:16:24.924Z,7.13
2022-11-17T16:18:51.990Z,7.67
2022-11-17T16:21:18.999Z,9.00
2022-11-17T16:23:47.822Z,7.70
2022-11-17T16:26:16.932Z,8.00
2022-11-17T16:28:44.266Z,8.30
2022-11-17T16:31:22.143Z,8.07
2022-11-17T16:33:57.153Z,8.67
2022-11-17T16:36:28.943Z,7.60
2022-11-17T16:39:01.268Z,7.63
2022-11-17T16:41:31.744Z,8.00
2022-11-17T16:43:59.300Z,9.00
2022-11-17T16:46:29.213Z,7.57
2022-11-17T16:48:56.944Z,7.73
2022-11-17T16:51:24.704Z,7.40
2022-11-17T16:54:03.046Z,6.97
2022-11-17T16:56:30.697Z,7.10
2022-11-17T16:58:58.759Z,8.27
2022-11-17T17:01:28.590Z,8.07
2022-11-17T17:03:57.127Z,8.53
2022-11-17T17:06:24.387Z,9.07
2022-11-17T17:08:59.468Z,7.90
2022-11-17T17:11:28.784Z,7.73
2022-11-17T17:13:56.741Z,8.93
2022-11-17T17:16:24.257Z,8.33
2022-11-17T17:19:01.831Z,8.80
2022-11-17T17:21:29.640Z,10.53
2022-11-17T17:23:57.337Z,9.03
2022-11-17T17:26:26.797Z,10.03
2022-11-17T17:28:56.414Z,9.67
2022-11-17T17:31:25.432Z,9.27
2022-11-17T17:33:53.145Z,9.37
2022-11-17T17:36:22.818Z,9.27
2022-11-17T17:38:55.499Z,9.20
2022-11-17T17:41:24.979Z,11.17
2022-11-17T17:43:58.207Z,11.40
2022-11-17T17:46:25.672Z,10.77
2022-11-17T17:48:52.855Z,9.20
2022-11-17T17:51:21.535Z,10.90
2022-11-17T17:53:53.798Z,12.03
2022-11-17T17:56:21.877Z,11.23
2022-11-17T17:58:50.645Z,10.73
2022-11-17T18:01:18.743Z,11.63
2022-11-17T18:03:48.141Z,11.93
2022-11-17T18:06:17.429Z,11.50
2022-11-17T18:08:45.624Z,11.80
2022-11-17T18:11:16.969Z,11.53
2022-11-17T18:13:44.876Z,12.23
2022-11-17T18:16:17.348Z,12.50
2022-11-17T18:18:45.674Z,11.53
2022-11-17T18:21:17.706Z,10.07
2022-11-17T18:23:44.750Z,12.00
2022-11-17T18:26:20.537Z,11.50
2022-11-17T18:28:52.928Z,10.97
2022-11-17T18:31:20.925Z,11.57
2022-11-17T18:33:55.824Z,11.87
2022-11-17T18:36:23.356Z,11.73
2022-11-17T18:39:02.400Z,10.93
2022-11-17T18:41:34.572Z,11.17
2022-11-17T18:44:02.341Z,10.83
2022-11-17T18:46:32.363Z,10.23
2022-11-17T18:49:02.084Z,11.63
2022-11-17T18:51:31.500Z,11.47
2022-11-17T18:54:00.333Z,12.00
2022-11-17T18:56:33.109Z,12.27
2022-11-17T18:59:00.191Z,11.30
2022-11-17T19:01:32.605Z,11.80
2022-11-17T19:04:02.689Z,12.43
2022-11-17T19:06:32.160Z,11.80
2022-11-17T19:09:04.486Z,11.33
2022-11-17T19:11:32.839Z,11.83
2022-11-17T19:14:05.305Z,12.13
2022-11-17T19:16:32.997Z,11.33
2022-11-17T19:19:25.297Z,12.47
2022-11-17T19:21:52.345Z,12.13
2022-11-17T19:24:19.145Z,10.53
2022-11-17T19:26:47.397Z,11.27
2022-11-17T19:29:17.471Z,12.53
2022-11-17T19:31:52.435Z,11.40
2022-11-17T19:34:19.344Z,11.33
2022-11-17T19:36:50.451Z,12.97
2022-11-17T19:39:18.088Z,12.30
2022-11-17T19:41:47.863Z,11.67
2022-11-17T19:44:14.868Z,12.07
2022-11-17T19:46:43.303Z,11.90
2022-11-17T19:49:12.033Z,11.00
2022-11-17T19:51:40.329Z,12.43
2022-11-17T19:54:35.528Z,11.73
2022-11-17T19:57:02.326Z,11.83
2022-11-17T19:59:29.132Z,13.30
2022-11-17T20:01:56.054Z,12.87
2022-11-17T20:04:23.157Z,11.60
2022-11-17T20:06:49.982Z,13.00
2022-11-17T20:09:17.019Z,12.33
2022-11-17T20:11:44.071Z,12.00
2022-11-17T20:14:14.529Z,12.27
2022-11-17T20:16:43.430Z,14.17
2022-11-17T20:19:11.191Z,13.50
2022-11-17T20:21:38.330Z,13.17
2022-11-17T20:24:05.152Z,13.50
2022-11-17T20:26:34.045Z,11.37
2022-11-17T20:29:01.223Z,12.70
2022-11-17T20:31:30.664Z,12.23
2022-11-17T20:34:00.446Z,13.60
2022-11-17T20:36:29.159Z,13.13
2022-11-17T20:38:58.236Z,13.53
2022-11-17T20:41:25.836Z,12.60
2022-11-17T20:43:54.857Z,13.40
2022-11-17T20:49:14.202Z,13.30
2022-11-17T20:51:42.150Z,13.37
2022-11-17T20:54:09.923Z,14.27
2022-11-17T20:56:36.888Z,13.30
2022-11-17T20:59:03.955Z,14.20
2022-11-17T21:01:30.803Z,14.03
2022-11-17T21:03:57.736Z,12.10
2022-11-17T21:06:27.987Z,12.87
2022-11-17T21:08:54.785Z,13.23
2022-11-17T21:11:56.922Z,13.10
2022-11-17T21:14:27.939Z,14.10
2022-11-17T21:16:57.616Z,13.07
2022-11-17T21:19:24.632Z,14.20
2022-11-17T21:21:53.360Z,14.47
2022-11-17T21:24:22.414Z,14.20
2022-11-17T21:26:54.504Z,14.30
2022-11-17T21:29:21.659Z,14.60
2022-11-17T21:31:48.723Z,13.13
2022-11-17T21:34:18.251Z,14.17
2022-11-17T21:36:45.542Z,13.87
2022-11-17T21:39:18.897Z,13.50
2022-11-17T21:41:46.036Z,13.53
2022-11-17T21:44:14.317Z,13.87
2022-11-17T21:46:41.565Z,13.57
2022-11-17T21:49:08.404Z,13.37
2022-11-17T21:51:38.808Z,12.90
2022-11-17T21:54:08.191Z,12.57
2022-11-17T21:56:36.205Z,11.97
2022-11-17T21:59:08.573Z,14.00
2022-11-17T22:01:35.806Z,12.57
2022-11-17T22:04:03.339Z,12.20
2022-11-17T22:06:30.690Z,11.83
2022-11-17T22:08:59.221Z,11.63
2022-11-17T22:11:37.485Z,10.93
2022-11-17T22:14:11.798Z,12.07
2022-11-17T22:16:43.910Z,11.60
2022-11-17T22:19:12.220Z,12.70
2022-11-17T22:21:40.529Z,11.30
2022-11-17T22:24:10.503Z,10.90
2022-11-17T22:26:38.714Z,10.47
2022-11-17T22:29:08.052Z,12.47
2022-11-17T22:31:35.116Z,11.87
2022-11-17T22:34:01.969Z,10.17
2022-11-17T22:39:20.216Z,10.17
2022-11-17T22:41:47.208Z,10.33
2022-11-17T22:44:15.828Z,9.73
2022-11-17T22:46:46.021Z,10.80
2022-11-17T22:49:13.844Z,10.50
2022-11-17T22:51:59.257Z,10.23
2022-11-17T22:54:26.039Z,9.90
2022-11-17T22:56:52.942Z,9.37
2022-11-17T22:59:22.174Z,10.13
2022-11-17T23:01:48.992Z,10.20
2022-11-17T23:04:21.018Z,9.40
2022-11-17T23:06:47.756Z,9.13
2022-11-17T23:09:14.715Z,10.23
2022-11-17T23:11:42.022Z,9.47
2022-11-17T23:14:13.702Z,10.03
2022-11-17T23:16:41.098Z,8.60
2022-11-17T23:19:16.784Z,8.60
2022-11-17T23:21:43.830Z,9.77
2022-11-17T23:24:12.751Z,9.17
2022-11-17T23:26:40.308Z,9.43
2022-11-17T23:29:07.874Z,9.67
2022-11-17T23:31:35.104Z,9.23
2022-11-17T23:34:02.068Z,9.03
2022-11-17T23:36:29.091Z,9.63
2022-11-17T23:38:57.684Z,10.00
2022-11-17T23:41:24.632Z,9.53
2022-11-17T23:43:53.084Z,9.67
2022-11-17T23:46:25.700Z,9.90
2022-11-17T23:48:52.830Z,10.27
2022-11-17T23:51:25.365Z,9.80
2022-11-17T23:53:53.125Z,9.67
2022-11-17T23:56:44.969Z,10.17
2022-11-17T23:59:17.732Z,9.83
